createdAt,value
2019-05-02T00:00:16.490Z,60.30
2019-05-02T00:02:48.502Z,67.67
2019-05-02T00:05:21.177Z,69.77
2019-05-02T00:07:53.811Z,67.50
2019-05-02T00:10:26.209Z,74.07
2019-05-02T00:12:58.017Z,70.27
2019-05-02T00:15:33.151Z,69.83
2019-05-02T00:18:02.735Z,72.97
2019-05-02T00:20:34.107Z,80.57
2019-05-02T00:23:05.456Z,72.17
2019-05-02T00:25:36.746Z,67.17
2019-05-02T00:28:12.320Z,72.20
2019-05-02T00:30:41.100Z,74.03
2019-05-02T00:33:12.343Z,77.40
2019-05-02T00:35:46.261Z,91.80
2019-05-02T00:38:16.445Z,81.93
2019-05-02T00:40:47.610Z,78.87
2019-05-02T00:43:18.967Z,90.17
2019-05-02T00:45:50.234Z,97.27
2019-05-02T00:48:27.445Z,92.17
2019-05-02T00:50:58.696Z,89.80
2019-05-02T00:53:30.011Z,85.77
2019-05-02T00:56:05.050Z,86.13
2019-05-02T00:58:34.201Z,98.57
2019-05-02T01:01:29.590Z,85.30
2019-05-02T01:04:03.833Z,104.60
2019-05-02T01:06:35.087Z,104.77
2019-05-02T01:09:11.014Z,105.93
2019-05-02T01:11:42.354Z,97.33
2019-05-02T01:14:13.597Z,108.80
2019-05-02T01:16:44.837Z,95.67
2019-05-02T01:19:17.251Z,105.87
2019-05-02T01:21:48.686Z,110.97
2019-05-02T01:24:19.919Z,110.27
2019-05-02T01:27:09.988Z,125.23
2019-05-02T01:29:46.093Z,118.27
2019-05-02T01:32:25.230Z,108.30
2019-05-02T01:35:11.637Z,111.93
2019-05-02T01:38:16.964Z,105.40
2019-05-02T01:40:53.370Z,104.43
2019-05-02T01:43:31.346Z,116.43
2019-05-02T01:46:03.510Z,120.10
2019-05-02T01:48:34.778Z,117.63
2019-05-02T01:51:10.419Z,128.40
2019-05-02T01:53:39.115Z,122.20
2019-05-02T01:56:10.426Z,119.40
2019-05-02T01:58:41.669Z,115.53
2019-05-02T02:01:16.155Z,131.10
2019-05-02T02:03:46.950Z,130.97
2019-05-02T02:06:18.334Z,117.77
2019-05-02T02:08:49.612Z,140.13
2019-05-02T02:11:20.904Z,141.80
2019-05-02T02:13:52.159Z,142.70
2019-05-02T02:16:23.439Z,151.73
2019-05-02T02:19:05.251Z,135.57
2019-05-02T02:22:02.681Z,138.80
2019-05-02T02:24:43.733Z,156.00
2019-05-02T02:27:15.128Z,140.40
2019-05-02T02:29:46.295Z,151.10
2019-05-02T02:32:20.171Z,157.97
2019-05-02T02:34:50.501Z,155.27
2019-05-02T02:37:21.710Z,126.00
2019-05-02T02:39:54.038Z,157.97
2019-05-02T02:42:31.731Z,149.73
2019-05-02T02:45:12.912Z,137.90
2019-05-02T02:47:41.082Z,129.70
2019-05-02T02:50:12.632Z,156.37
2019-05-02T02:52:44.688Z,140.27
2019-05-02T02:55:21.911Z,142.57
2019-05-02T02:57:49.737Z,136.97
2019-05-02T03:00:21.192Z,146.63
2019-05-02T03:02:52.474Z,144.03
2019-05-02T03:05:25.849Z,136.47
2019-05-02T03:07:59.464Z,135.77
2019-05-02T03:10:29.695Z,149.17
2019-05-02T03:13:21.651Z,131.77
2019-05-02T03:16:00.430Z,136.03
2019-05-02T03:18:39.782Z,103.60
2019-05-02T03:21:05.244Z,134.60
2019-05-02T03:23:36.927Z,152.73
2019-05-02T03:26:14.826Z,141.37
2019-05-02T03:28:41.125Z,144.73
2019-05-02T03:31:24.059Z,121.30
2019-05-02T03:33:54.425Z,160.07
2019-05-02T03:36:28.852Z,130.57
2019-05-02T03:38:51.668Z,141.33
2019-05-02T03:41:23.609Z,155.80
2019-05-02T03:44:10.006Z,145.13
2019-05-02T03:46:28.014Z,154.70
2019-05-02T03:49:07.279Z,168.30
2019-05-02T03:51:32.149Z,141.43
2019-05-02T03:54:07.276Z,146.53
2019-05-02T03:56:36.495Z,136.00
2019-05-02T03:59:07.722Z,154.73
2019-05-02T04:01:41.298Z,135.93
2019-05-02T04:04:14.233Z,138.20
2019-05-02T04:06:47.177Z,147.80
2019-05-02T04:09:39.705Z,143.93
2019-05-02T04:12:18.368Z,157.27
2019-05-02T04:14:44.670Z,142.07
2019-05-02T04:17:16.255Z,134.67
2019-05-02T04:19:48.298Z,125.10
2019-05-02T04:22:19.763Z,140.93
2019-05-02T04:24:54.346Z,133.13
2019-05-02T04:27:27.821Z,156.33
2019-05-02T04:29:57.147Z,162.10
2019-05-02T04:32:28.422Z,140.47
2019-05-02T04:34:59.668Z,146.30
2019-05-02T04:37:34.293Z,147.17
2019-05-02T04:40:08.042Z,137.13
2019-05-02T04:42:39.365Z,132.53
2019-05-02T04:45:24.080Z,139.80
2019-05-02T04:47:54.583Z,148.27
2019-05-02T04:50:18.786Z,145.30
2019-05-02T04:52:53.757Z,126.43
2019-05-02T04:55:29.089Z,145.93
2019-05-02T04:57:54.802Z,138.03
2019-05-02T05:00:30.142Z,133.73
2019-05-02T05:03:01.435Z,154.10
2019-05-02T05:05:32.679Z,146.47
2019-05-02T05:08:03.913Z,135.13
2019-05-02T05:10:41.391Z,146.50
2019-05-02T05:13:12.044Z,143.53
2019-05-02T05:15:48.443Z,134.03
2019-05-02T05:18:14.601Z,133.27
2019-05-02T05:20:52.787Z,115.90
2019-05-02T05:23:38.113Z,124.73
2019-05-02T05:26:09.570Z,117.73
2019-05-02T05:28:44.384Z,93.87
2019-05-02T05:31:16.422Z,104.83
2019-05-02T05:33:47.857Z,88.73
2019-05-02T05:36:20.022Z,89.87
2019-05-02T05:38:52.121Z,81.10
2019-05-02T05:41:23.384Z,74.50
2019-05-02T05:43:54.696Z,71.83
2019-05-02T05:46:28.006Z,69.47
2019-05-02T05:48:58.861Z,69.27
2019-05-02T05:51:30.147Z,66.37
2019-05-02T05:54:03.071Z,57.77
2019-05-02T05:56:39.661Z,54.53
2019-05-02T05:59:07.755Z,46.30
2019-05-02T06:01:39.244Z,51.97
2019-05-02T06:04:13.814Z,45.13
2019-05-02T06:06:43.464Z,44.93
2019-05-02T06:09:14.680Z,42.90
2019-05-02T06:11:46.016Z,44.80
2019-05-02T06:14:19.952Z,38.10
2019-05-02T06:16:51.687Z,39.63
2019-05-02T06:19:23.109Z,39.27
2019-05-02T06:21:54.401Z,39.67
2019-05-02T06:24:25.654Z,40.83
2019-05-02T06:26:56.936Z,39.97
2019-05-02T06:29:28.246Z,37.83
2019-05-02T06:32:05.496Z,39.80
2019-05-02T06:34:38.289Z,46.60
2019-05-02T06:37:13.553Z,50.53
2019-05-02T06:39:42.639Z,47.13
2019-05-02T06:42:13.889Z,47.60
2019-05-02T06:44:45.102Z,49.80
2019-05-02T06:47:16.279Z,52.93
2019-05-02T06:49:47.549Z,46.63
2019-05-02T06:52:18.868Z,42.80
2019-05-02T06:54:54.118Z,48.70
2019-05-02T06:57:24.025Z,37.27
2019-05-02T06:59:56.512Z,35.43
2019-05-02T07:02:28.269Z,41.23
2019-05-02T07:05:00.819Z,39.50
2019-05-02T07:07:36.646Z,41.47
2019-05-02T07:10:07.336Z,43.93
2019-05-02T07:12:38.575Z,42.40
2019-05-02T07:15:33.414Z,45.70
2019-05-02T07:18:05.456Z,40.43
2019-05-02T07:20:40.714Z,43.90
2019-05-02T07:23:10.470Z,40.63
2019-05-02T07:25:43.864Z,44.00
2019-05-02T07:28:29.600Z,50.57
2019-05-02T07:31:06.505Z,55.73
2019-05-02T07:33:37.519Z,55.77
2019-05-02T07:36:08.436Z,59.73
2019-05-02T07:38:39.650Z,62.23
2019-05-02T07:41:10.909Z,70.70
2019-05-02T07:43:42.199Z,68.07
2019-05-02T07:46:16.219Z,73.23
2019-05-02T07:48:48.959Z,63.57
2019-05-02T07:51:21.418Z,62.90
2019-05-02T07:53:55.248Z,55.97
2019-05-02T07:56:25.234Z,57.47
2019-05-02T07:58:56.518Z,56.07
2019-05-02T08:01:27.763Z,52.43
2019-05-02T08:04:04.200Z,56.80
2019-05-02T08:06:35.242Z,50.23
2019-05-02T08:09:07.367Z,48.03
2019-05-02T08:11:39.455Z,54.83
2019-05-02T08:14:10.751Z,46.73
2019-05-02T08:16:41.941Z,43.17
2019-05-02T08:19:13.234Z,39.97
2019-05-02T08:21:44.419Z,42.07
2019-05-02T08:24:15.671Z,41.60
2019-05-02T08:27:14.516Z,41.83
2019-05-02T08:29:45.766Z,43.07
2019-05-02T08:32:16.993Z,46.40
2019-05-02T08:34:51.901Z,39.83
2019-05-02T08:37:21.149Z,39.80
2019-05-02T08:39:52.397Z,37.90
2019-05-02T08:42:27.681Z,39.23
2019-05-02T08:45:00.912Z,40.97
2019-05-02T08:47:30.572Z,38.70
2019-05-02T08:50:01.852Z,36.23
2019-05-02T08:52:36.831Z,34.43
2019-05-02T08:55:09.811Z,36.03
2019-05-02T08:57:39.410Z,36.07
2019-05-02T09:00:13.404Z,38.27
2019-05-02T09:02:44.685Z,51.13
2019-05-02T09:05:16.454Z,37.40
2019-05-02T09:07:47.709Z,35.67
2019-05-02T09:10:19.199Z,36.23
2019-05-02T09:12:52.083Z,35.60
2019-05-02T09:15:23.575Z,35.67
2019-05-02T09:17:56.409Z,38.47
2019-05-02T09:20:27.860Z,37.30
2019-05-02T09:22:59.127Z,39.37
2019-05-02T09:25:32.315Z,41.23
2019-05-02T09:28:03.522Z,39.70
2019-05-02T09:30:34.781Z,38.07
2019-05-02T09:33:06.814Z,41.60
2019-05-02T09:35:38.259Z,39.10
2019-05-02T09:38:09.544Z,36.80
2019-05-02T09:40:42.600Z,41.43
2019-05-02T09:43:13.817Z,36.30
2019-05-02T09:45:45.068Z,36.23
2019-05-02T09:48:17.175Z,41.50
2019-05-02T09:50:49.283Z,42.80
2019-05-02T09:55:55.140Z,48.73
2019-05-02T09:58:24.072Z,46.67
2019-05-02T10:01:01.989Z,44.03
2019-05-02T10:03:33.496Z,45.67
2019-05-02T10:06:08.366Z,45.70
2019-05-02T10:08:38.341Z,50.67
2019-05-02T10:11:11.775Z,50.97
2019-05-02T10:13:44.494Z,45.80
2019-05-02T10:16:18.054Z,48.77
2019-05-02T10:18:48.916Z,48.30
2019-05-02T10:21:22.650Z,49.57
2019-05-02T10:23:59.006Z,47.17
2019-05-02T10:26:27.823Z,49.33
2019-05-02T10:28:58.942Z,48.40
2019-05-02T10:31:33.420Z,50.60
2019-05-02T10:34:03.356Z,48.37
2019-05-02T10:36:34.722Z,41.80
2019-05-02T10:39:08.467Z,39.53
2019-05-02T10:41:41.058Z,44.87
2019-05-02T10:44:12.937Z,40.60
2019-05-02T10:46:56.013Z,44.60
2019-05-02T10:49:32.217Z,52.20
2019-05-02T10:52:03.501Z,47.03
2019-05-02T10:54:37.482Z,45.93
2019-05-02T10:57:07.781Z,44.17
2019-05-02T10:59:41.957Z,46.83
2019-05-02T11:02:26.663Z,47.17
2019-05-02T11:05:02.703Z,46.00
2019-05-02T11:07:34.079Z,45.00
2019-05-02T11:10:07.234Z,41.00
2019-05-02T11:12:47.334Z,42.50
2019-05-02T11:15:48.694Z,40.10
2019-05-02T11:18:38.792Z,46.17
2019-05-02T11:20:58.997Z,44.03
2019-05-02T11:23:32.853Z,40.93
2019-05-02T11:26:07.189Z,42.17
2019-05-02T11:28:52.004Z,45.63
2019-05-02T11:31:23.230Z,41.50
2019-05-02T11:33:54.524Z,41.27
2019-05-02T11:36:27.470Z,37.93
2019-05-02T11:39:09.509Z,42.23
2019-05-02T11:41:31.903Z,43.20
2019-05-02T11:44:03.360Z,41.83
2019-05-02T11:46:37.617Z,39.43
2019-05-02T11:49:07.753Z,41.03
2019-05-02T11:51:38.990Z,43.50
2019-05-02T11:54:10.390Z,39.60
2019-05-02T11:56:49.103Z,48.50
2019-05-02T11:59:15.079Z,35.83
2019-05-02T12:01:59.738Z,37.60
2019-05-02T12:04:26.473Z,36.77
2019-05-02T12:07:01.340Z,37.73
2019-05-02T12:09:31.945Z,39.40
2019-05-02T12:12:03.319Z,40.20
2019-05-02T12:14:36.396Z,39.00
2019-05-02T12:17:07.498Z,42.47
2019-05-02T12:19:38.744Z,34.67
2019-05-02T12:22:12.825Z,37.30
2019-05-02T12:24:45.359Z,34.53
2019-05-02T12:27:16.083Z,39.53
2019-05-02T12:29:50.221Z,37.67
2019-05-02T12:32:22.332Z,36.03
2019-05-02T12:34:53.300Z,37.40
2019-05-02T12:37:24.637Z,35.83
2019-05-02T12:39:55.845Z,36.73
2019-05-02T12:42:27.461Z,33.93
2019-05-02T12:44:59.255Z,36.60
2019-05-02T12:47:31.927Z,41.90
2019-05-02T12:50:03.336Z,35.07
2019-05-02T12:52:34.512Z,39.43
2019-05-02T12:55:06.215Z,37.47
2019-05-02T12:57:37.534Z,38.40
2019-05-02T13:00:10.271Z,38.97
2019-05-02T13:03:02.016Z,36.10
2019-05-02T13:05:33.406Z,33.90
2019-05-02T13:08:04.801Z,38.00
2019-05-02T13:11:06.392Z,37.67
2019-05-02T13:13:34.637Z,36.67
2019-05-02T13:16:06.269Z,33.33
2019-05-02T13:18:37.571Z,33.27
2019-05-02T13:21:15.175Z,36.97
2019-05-02T13:23:51.723Z,35.80
2019-05-02T13:26:27.151Z,34.10
2019-05-02T13:28:56.381Z,34.40
2019-05-02T13:31:43.003Z,39.37
2019-05-02T13:34:24.484Z,36.97
2019-05-02T13:36:57.934Z,38.83
2019-05-02T13:39:41.847Z,36.77
2019-05-02T13:42:13.577Z,34.53
2019-05-02T13:44:52.703Z,38.83
2019-05-02T13:47:24.847Z,34.20
2019-05-02T13:49:59.212Z,39.43
2019-05-02T13:52:29.857Z,42.83
2019-05-02T13:55:01.810Z,42.90
2019-05-02T13:57:35.009Z,33.07
2019-05-02T14:00:07.516Z,37.80
2019-05-02T14:02:42.641Z,41.97
2019-05-02T14:05:15.967Z,36.70
2019-05-02T14:07:53.987Z,41.20
2019-05-02T14:10:39.373Z,39.23
2019-05-02T14:13:06.751Z,52.07
2019-05-02T14:15:42.070Z,47.83
2019-05-02T14:18:13.526Z,60.70
2019-05-02T14:20:44.789Z,66.43
2019-05-02T14:23:16.062Z,71.97
2019-05-02T14:25:47.332Z,70.47
2019-05-02T14:28:18.597Z,79.90
2019-05-02T14:30:49.825Z,82.13
2019-05-02T14:33:23.637Z,78.20
2019-05-02T14:35:56.498Z,82.60
2019-05-02T14:38:27.778Z,89.07
2019-05-02T14:41:30.036Z,86.03
2019-05-02T14:44:00.027Z,79.20
2019-05-02T14:46:37.329Z,82.90
2019-05-02T14:49:05.867Z,80.53
2019-05-02T14:51:37.120Z,80.53
2019-05-02T14:54:09.577Z,77.00
2019-05-02T14:56:52.260Z,86.83
2019-05-02T14:59:23.828Z,81.23
2019-05-02T15:02:03.906Z,71.73
2019-05-02T15:04:32.129Z,75.23
2019-05-02T15:07:03.607Z,72.33
2019-05-02T15:09:36.368Z,76.70
2019-05-02T15:12:15.909Z,72.80
2019-05-02T15:14:42.767Z,74.30
2019-05-02T15:17:13.909Z,76.40
2019-05-02T15:19:45.218Z,71.90
2019-05-02T15:22:16.451Z,71.83
2019-05-02T15:24:47.739Z,70.67
2019-05-02T15:27:18.953Z,73.13
2019-05-02T15:29:55.359Z,71.20
2019-05-02T15:32:47.974Z,77.17
2019-05-02T15:35:44.171Z,84.00
2019-05-02T15:38:24.300Z,82.93
2019-05-02T15:40:51.438Z,81.27
2019-05-02T15:43:22.143Z,85.37
2019-05-02T15:45:53.474Z,81.07
2019-05-02T15:48:27.407Z,86.97
2019-05-02T15:51:00.138Z,81.93
2019-05-02T15:53:49.697Z,70.47
2019-05-02T15:56:20.296Z,40.07
2019-05-02T15:58:52.162Z,48.90
2019-05-02T16:01:41.243Z,73.50
2019-05-02T16:04:17.299Z,72.87
2019-05-02T16:06:47.613Z,81.40
2019-05-02T16:09:18.873Z,89.20
2019-05-02T16:11:53.208Z,99.33
2019-05-02T16:14:27.058Z,101.87
2019-05-02T16:16:55.998Z,111.93
2019-05-02T16:19:29.325Z,128.23
2019-05-02T16:22:22.468Z,109.70
2019-05-02T16:24:56.358Z,101.10
2019-05-02T16:27:46.767Z,98.87
2019-05-02T16:30:24.082Z,98.47
2019-05-02T16:33:02.738Z,101.30
2019-05-02T16:35:35.337Z,110.97
2019-05-02T16:38:07.102Z,104.77
2019-05-02T16:40:41.774Z,116.33
2019-05-02T16:43:12.894Z,106.07
2019-05-02T16:45:44.323Z,106.40
2019-05-02T16:48:19.812Z,100.40
2019-05-02T16:50:51.082Z,139.93
2019-05-02T16:53:26.040Z,123.83
2019-05-02T16:55:58.437Z,117.47
2019-05-02T16:58:31.928Z,131.70
2019-05-02T17:01:07.872Z,109.80
2019-05-02T17:03:42.055Z,114.10
2019-05-02T17:06:22.368Z,104.00
2019-05-02T17:09:11.930Z,104.50
2019-05-02T17:11:44.416Z,99.90
2019-05-02T17:14:22.091Z,94.27
2019-05-02T17:17:01.403Z,105.23
2019-05-02T17:19:34.757Z,90.13
2019-05-02T17:22:08.622Z,88.60
2019-05-02T17:24:44.316Z,95.17
2019-05-02T17:27:20.593Z,83.23
2019-05-02T17:29:59.415Z,81.23
2019-05-02T17:32:28.852Z,87.27
2019-05-02T17:35:09.767Z,72.87
2019-05-02T17:37:40.621Z,78.47
2019-05-02T17:40:12.342Z,71.97
2019-05-02T17:42:47.744Z,68.83
2019-05-02T17:45:23.890Z,76.90
2019-05-02T17:48:02.187Z,60.10
2019-05-02T17:50:54.768Z,64.37
2019-05-02T17:53:25.049Z,65.73
2019-05-02T17:55:57.315Z,75.10
2019-05-02T17:58:29.040Z,71.60
2019-05-02T18:01:02.616Z,74.40
2019-05-02T18:03:36.314Z,67.40
2019-05-02T18:06:13.237Z,78.13
2019-05-02T18:08:41.706Z,68.07
2019-05-02T18:11:18.629Z,71.47
2019-05-02T18:13:51.786Z,78.90
2019-05-02T18:16:26.952Z,79.43
2019-05-02T18:19:03.946Z,75.60
2019-05-02T18:21:41.883Z,90.17
2019-05-02T18:24:13.519Z,81.70
2019-05-02T18:26:47.872Z,89.83
2019-05-02T18:29:21.040Z,84.50
2019-05-02T18:31:52.676Z,99.50
2019-05-02T18:34:26.674Z,102.27
2019-05-02T18:37:06.381Z,89.00
2019-05-02T18:39:42.621Z,92.50
2019-05-02T18:42:11.960Z,99.37
2019-05-02T18:44:52.553Z,99.20
2019-05-02T18:47:20.315Z,107.23
2019-05-02T18:50:00.924Z,132.07
2019-05-02T18:52:38.433Z,99.20
2019-05-02T18:55:05.748Z,110.77
2019-05-02T18:57:36.349Z,109.97
2019-05-02T19:00:07.946Z,94.70
2019-05-02T19:02:39.849Z,106.97
2019-05-02T19:05:22.950Z,132.57
2019-05-02T19:08:28.339Z,112.53
2019-05-02T19:11:06.044Z,114.23
2019-05-02T19:13:30.734Z,120.43
2019-05-02T19:16:02.213Z,112.83
2019-05-02T19:18:33.371Z,119.60
2019-05-02T19:21:05.848Z,122.83
2019-05-02T19:23:51.699Z,116.73
2019-05-02T19:26:22.848Z,119.70
2019-05-02T19:29:12.796Z,141.03
2019-05-02T19:31:48.860Z,127.33
2019-05-02T19:34:22.896Z,133.63
2019-05-02T19:36:52.631Z,119.30
2019-05-02T19:39:24.339Z,115.30
2019-05-02T19:41:55.942Z,120.40
2019-05-02T19:44:29.621Z,155.23
2019-05-02T19:47:08.327Z,124.33
2019-05-02T19:49:38.598Z,123.97
2019-05-02T19:54:39.960Z,117.13
2019-05-02T19:57:21.683Z,103.20
2019-05-02T20:00:02.786Z,84.00
2019-05-02T20:02:37.385Z,78.67
2019-05-02T20:05:06.258Z,74.83
2019-05-02T20:07:37.535Z,51.33
2019-05-02T20:10:09.840Z,51.60
2019-05-02T20:12:48.368Z,46.73
2019-05-02T20:15:17.077Z,45.70
2019-05-02T20:17:55.304Z,43.23
2019-05-02T20:21:00.262Z,39.53
2019-05-02T20:23:35.744Z,30.70
2019-05-02T20:26:09.468Z,38.40
2019-05-02T20:28:42.157Z,31.93
2019-05-02T20:31:13.245Z,36.63
2019-05-02T20:33:44.495Z,31.90
2019-05-02T20:36:15.776Z,29.07
2019-05-02T20:38:47.214Z,30.50
2019-05-02T20:41:22.378Z,23.80
2019-05-02T20:44:12.774Z,21.67
2019-05-02T20:46:48.705Z,21.10
2019-05-02T20:49:20.324Z,24.93
2019-05-02T20:51:53.306Z,17.83
2019-05-02T20:54:24.567Z,15.80
2019-05-02T20:56:55.846Z,18.67
2019-05-02T20:59:27.170Z,23.17
2019-05-02T21:01:58.557Z,22.03
2019-05-02T21:04:31.723Z,17.13
2019-05-02T21:07:26.101Z,16.00
2019-05-02T21:10:12.514Z,21.47
2019-05-02T21:12:44.022Z,15.93
2019-05-02T21:15:18.162Z,18.97
2019-05-02T21:17:48.419Z,20.20
2019-05-02T21:20:21.772Z,22.40
2019-05-02T21:22:53.049Z,17.50
2019-05-02T21:25:24.608Z,19.50
2019-05-02T21:27:55.945Z,18.50
2019-05-02T21:30:29.647Z,17.47
2019-05-02T21:33:02.732Z,18.57
2019-05-02T21:35:33.939Z,15.37
2019-05-02T21:38:05.196Z,17.93
2019-05-02T21:40:36.518Z,18.10
2019-05-02T21:43:08.141Z,14.30
2019-05-02T21:45:39.491Z,21.13
2019-05-02T21:48:10.748Z,20.23
2019-05-02T21:50:53.289Z,22.17
2019-05-02T21:53:34.538Z,17.30
2019-05-02T21:56:12.323Z,17.60
2019-05-02T21:59:02.977Z,18.33
2019-05-02T22:01:38.236Z,17.40
2019-05-02T22:04:09.553Z,13.10
2019-05-02T22:06:42.750Z,12.47
2019-05-02T22:09:14.742Z,17.40
2019-05-02T22:11:47.618Z,14.00
2019-05-02T22:14:22.367Z,11.87
2019-05-02T22:16:53.666Z,14.43
2019-05-02T22:19:25.018Z,18.27
2019-05-02T22:21:56.311Z,14.33
2019-05-02T22:24:27.609Z,15.20
2019-05-02T22:26:59.603Z,11.07
2019-05-02T22:29:32.390Z,12.87
2019-05-02T22:32:03.894Z,11.73
2019-05-02T22:34:35.254Z,14.27
2019-05-02T22:37:08.150Z,13.23
2019-05-02T22:39:53.334Z,16.17
2019-05-02T22:42:24.729Z,15.37
2019-05-02T22:44:56.074Z,14.87
2019-05-02T22:47:27.485Z,13.70
2019-05-02T22:49:58.802Z,12.67
2019-05-02T22:52:32.162Z,11.80
2019-05-02T22:55:03.082Z,13.20
2019-05-02T22:57:34.484Z,16.37
2019-05-02T23:00:07.088Z,12.60
2019-05-02T23:02:38.418Z,12.40
2019-05-02T23:05:10.122Z,14.97
2019-05-02T23:07:41.895Z,10.93
2019-05-02T23:10:13.696Z,14.50
2019-05-02T23:12:45.039Z,11.20
2019-05-02T23:15:16.493Z,10.97
2019-05-02T23:17:47.693Z,11.37
2019-05-02T23:20:19.319Z,12.67
2019-05-02T23:22:52.303Z,12.00
2019-05-02T23:25:58.702Z,11.63
2019-05-02T23:28:31.865Z,14.60
2019-05-02T23:31:03.220Z,13.03
2019-05-02T23:33:52.075Z,11.13
2019-05-02T23:36:23.407Z,9.80
2019-05-02T23:38:54.690Z,14.13
2019-05-02T23:41:26.248Z,15.07
2019-05-02T23:43:57.463Z,11.13
2019-05-02T23:46:28.780Z,13.10
2019-05-02T23:49:01.883Z,11.50
2019-05-02T23:51:33.190Z,14.43
2019-05-02T23:54:04.503Z,10.87
2019-05-02T23:56:35.836Z,13.47
2019-05-02T23:59:07.178Z,12.77
